createdAt,value
2022-08-03T00:00:26.446Z,23.55
2022-08-03T00:02:53.752Z,23.57
2022-08-03T00:05:20.471Z,23.66
2022-08-03T00:07:47.004Z,23.63
2022-08-03T00:10:16.609Z,23.64
2022-08-03T00:12:43.185Z,23.68
2022-08-03T00:15:11.117Z,23.64
2022-08-03T00:17:53.685Z,23.64
2022-08-03T00:20:24.726Z,23.69
2022-08-03T00:22:51.669Z,23.71
2022-08-03T00:25:18.582Z,23.71
2022-08-03T00:27:45.554Z,23.68
2022-08-03T00:30:15.177Z,23.74
2022-08-03T00:32:45.156Z,23.80
2022-08-03T00:35:35.124Z,23.72
2022-08-03T00:37:59.434Z,23.71
2022-08-03T00:40:26.297Z,23.62
2022-08-03T00:43:00.782Z,23.61
2022-08-03T00:45:30.358Z,23.65
2022-08-03T00:47:57.327Z,23.64
2022-08-03T00:50:25.172Z,23.68
2022-08-03T00:52:53.935Z,23.62
2022-08-03T00:55:20.949Z,23.64
2022-08-03T00:57:47.701Z,23.60
2022-08-03T01:00:17.213Z,23.58
2022-08-03T01:02:44.105Z,23.52
2022-08-03T01:05:11.172Z,23.49
2022-08-03T01:08:08.359Z,23.49
2022-08-03T01:10:47.038Z,23.49
2022-08-03T01:14:00.910Z,23.50
2022-08-03T01:16:35.978Z,23.47
2022-08-03T01:19:28.347Z,23.39
2022-08-03T01:22:13.976Z,23.43
2022-08-03T01:25:11.705Z,23.44
2022-08-03T01:27:38.210Z,23.40
2022-08-03T01:30:06.217Z,23.42
2022-08-03T01:32:53.348Z,23.39
2022-08-03T01:35:28.206Z,23.34
2022-08-03T01:38:02.528Z,23.37
2022-08-03T01:40:32.327Z,23.43
2022-08-03T01:43:00.374Z,23.42
2022-08-03T01:45:28.240Z,23.37
2022-08-03T01:48:01.968Z,23.41
2022-08-03T01:50:30.975Z,23.40
2022-08-03T01:52:59.082Z,23.38
2022-08-03T01:55:29.649Z,23.41
2022-08-03T01:58:06.024Z,23.43
2022-08-03T02:00:36.754Z,23.33
2022-08-03T02:03:07.131Z,23.33
2022-08-03T02:05:34.652Z,23.29
2022-08-03T02:08:05.120Z,23.27
2022-08-03T02:10:34.810Z,23.29
2022-08-03T02:13:05.178Z,23.19
2022-08-03T02:15:33.831Z,23.21
2022-08-03T02:18:03.104Z,23.24
2022-08-03T02:20:33.065Z,23.26
2022-08-03T02:22:59.803Z,23.22
2022-08-03T02:25:26.557Z,23.22
2022-08-03T02:27:58.401Z,23.23
2022-08-03T02:30:37.022Z,23.17
2022-08-03T02:33:05.144Z,23.18
2022-08-03T02:35:35.662Z,23.22
2022-08-03T02:38:04.706Z,23.14
2022-08-03T02:40:33.075Z,23.10
2022-08-03T02:43:05.324Z,23.10
2022-08-03T02:45:36.056Z,23.12
2022-08-03T02:48:05.380Z,23.14
2022-08-03T02:50:34.000Z,23.13
2022-08-03T02:53:03.000Z,23.10
2022-08-03T02:55:31.940Z,23.10
2022-08-03T02:58:01.407Z,23.11
2022-08-03T03:00:30.131Z,23.10
2022-08-03T03:03:01.530Z,23.07
2022-08-03T03:05:53.146Z,23.08
2022-08-03T03:08:20.779Z,23.08
2022-08-03T03:10:55.512Z,23.14
2022-08-03T03:13:23.605Z,23.10
2022-08-03T03:15:52.143Z,23.11
2022-08-03T03:18:22.860Z,23.10
2022-08-03T03:20:51.237Z,23.06
2022-08-03T03:23:18.495Z,23.07
2022-08-03T03:25:45.538Z,23.07
2022-08-03T03:28:12.337Z,23.02
2022-08-03T03:30:38.998Z,23.06
2022-08-03T03:33:05.664Z,23.00
2022-08-03T03:35:37.079Z,23.04
2022-08-03T03:38:05.604Z,23.09
2022-08-03T03:40:32.365Z,22.92
2022-08-03T03:42:59.122Z,22.98
2022-08-03T03:45:26.675Z,22.97
2022-08-03T03:47:53.348Z,22.95
2022-08-03T03:50:22.356Z,22.96
2022-08-03T03:52:48.898Z,22.98
2022-08-03T03:55:17.840Z,22.92
2022-08-03T03:57:44.509Z,22.95
2022-08-03T04:00:13.353Z,22.92
2022-08-03T04:02:40.258Z,22.88
2022-08-03T04:05:26.676Z,22.86
2022-08-03T04:08:19.769Z,22.87
2022-08-03T04:11:11.579Z,22.95
2022-08-03T04:13:42.799Z,22.92
2022-08-03T04:16:13.938Z,22.85
2022-08-03T04:18:42.160Z,22.85
2022-08-03T04:21:11.343Z,22.81
2022-08-03T04:23:42.938Z,22.89
2022-08-03T04:26:12.814Z,22.90
2022-08-03T04:28:46.473Z,22.90
2022-08-03T04:31:15.643Z,22.92
2022-08-03T04:33:44.801Z,22.97
2022-08-03T04:36:17.134Z,22.91
2022-08-03T04:39:00.622Z,22.98
2022-08-03T04:41:28.607Z,23.00
2022-08-03T04:43:58.861Z,22.96
2022-08-03T04:46:28.392Z,22.88
2022-08-03T04:48:56.465Z,22.89
2022-08-03T04:51:23.532Z,22.89
2022-08-03T04:53:50.183Z,22.95
2022-08-03T04:56:17.161Z,22.92
2022-08-03T04:58:44.027Z,22.94
2022-08-03T05:01:10.692Z,22.92
2022-08-03T05:03:37.649Z,22.88
2022-08-03T05:06:11.113Z,22.93
2022-08-03T05:08:46.296Z,23.00
2022-08-03T05:11:16.517Z,23.00
2022-08-03T05:13:44.058Z,23.08
2022-08-03T05:16:11.854Z,23.05
2022-08-03T05:18:38.358Z,23.05
2022-08-03T05:21:05.089Z,22.99
2022-08-03T05:23:31.677Z,23.03
2022-08-03T05:25:58.304Z,23.02
2022-08-03T05:28:24.870Z,22.95
2022-08-03T05:30:51.425Z,22.92
2022-08-03T05:33:18.179Z,22.96
2022-08-03T05:36:02.676Z,22.95
2022-08-03T05:38:34.692Z,22.89
2022-08-03T05:41:21.432Z,22.90
2022-08-03T05:43:54.849Z,22.89
2022-08-03T05:46:23.124Z,22.84
2022-08-03T05:48:49.799Z,22.92
2022-08-03T05:51:16.638Z,22.90
2022-08-03T05:53:44.065Z,23.01
2022-08-03T05:56:13.957Z,23.08
2022-08-03T05:58:47.699Z,22.86
2022-08-03T06:01:16.661Z,22.73
2022-08-03T06:03:43.493Z,22.76
2022-08-03T06:06:11.504Z,22.88
2022-08-03T06:08:38.322Z,22.77
2022-08-03T06:11:04.934Z,22.92
2022-08-03T06:13:32.207Z,22.98
2022-08-03T06:15:58.718Z,22.90
2022-08-03T06:18:25.491Z,23.05
2022-08-03T06:20:52.928Z,22.91
2022-08-03T06:23:20.359Z,22.94
2022-08-03T06:25:47.612Z,23.12
2022-08-03T06:28:42.567Z,23.37
2022-08-03T06:31:01.738Z,23.54
2022-08-03T06:33:48.576Z,23.59
2022-08-03T06:36:15.334Z,23.64
2022-08-03T06:38:41.972Z,23.60
2022-08-03T06:41:08.575Z,23.88
2022-08-03T06:43:37.651Z,23.79
2022-08-03T06:46:07.986Z,23.81
2022-08-03T06:48:34.559Z,24.00
2022-08-03T06:51:01.063Z,24.04
2022-08-03T06:53:27.622Z,23.89
2022-08-03T06:55:55.191Z,24.05
2022-08-03T06:58:22.575Z,23.91
2022-08-03T07:00:49.406Z,23.76
2022-08-03T07:03:16.420Z,23.65
2022-08-03T07:05:43.730Z,23.49
2022-08-03T07:08:10.501Z,23.32
2022-08-03T07:10:37.288Z,23.39
2022-08-03T07:13:04.727Z,23.51
2022-08-03T07:15:53.778Z,23.71
2022-08-03T07:18:27.573Z,23.71
2022-08-03T07:20:56.399Z,23.64
2022-08-03T07:23:22.985Z,23.70
2022-08-03T07:25:50.830Z,23.81
2022-08-03T07:28:17.521Z,23.93
2022-08-03T07:30:44.051Z,23.96
2022-08-03T07:33:10.582Z,23.79
2022-08-03T07:35:37.367Z,24.06
2022-08-03T07:38:03.915Z,24.02
2022-08-03T07:40:31.783Z,23.98
2022-08-03T07:42:58.799Z,24.38
2022-08-03T07:45:26.569Z,24.44
2022-08-03T07:47:53.903Z,24.50
2022-08-03T07:50:21.118Z,24.21
2022-08-03T07:52:47.992Z,23.94
2022-08-03T07:55:15.293Z,23.80
2022-08-03T07:57:42.435Z,23.77
2022-08-03T08:00:15.416Z,23.76
2022-08-03T08:02:42.769Z,23.86
2022-08-03T08:05:10.971Z,23.76
2022-08-03T08:07:38.694Z,23.72
2022-08-03T08:10:10.271Z,23.82
2022-08-03T08:12:38.659Z,23.88
2022-08-03T08:15:06.743Z,23.80
2022-08-03T08:17:44.602Z,23.90
2022-08-03T08:20:12.719Z,24.05
2022-08-03T08:22:39.273Z,24.20
2022-08-03T08:25:07.607Z,24.15
2022-08-03T08:28:31.805Z,24.20
2022-08-03T08:30:22.757Z,24.53
2022-08-03T08:32:50.753Z,24.85
2022-08-03T08:35:18.781Z,25.10
2022-08-03T08:37:51.106Z,25.34
2022-08-03T08:40:23.103Z,25.41
2022-08-03T08:42:58.910Z,25.50
2022-08-03T08:45:26.313Z,25.50
2022-08-03T08:48:00.848Z,25.32
2022-08-03T08:50:28.528Z,25.14
2022-08-03T08:52:56.246Z,25.01
2022-08-03T08:55:23.926Z,24.54
2022-08-03T08:57:58.989Z,24.79
2022-08-03T09:00:25.534Z,25.13
2022-08-03T09:02:52.125Z,25.28
2022-08-03T09:05:31.478Z,25.60
2022-08-03T09:08:06.894Z,25.54
2022-08-03T09:10:34.905Z,25.37
2022-08-03T09:13:01.828Z,25.32
2022-08-03T09:15:33.083Z,25.09
2022-08-03T09:18:01.902Z,24.80
2022-08-03T09:20:33.766Z,24.32
2022-08-03T09:23:00.279Z,24.29
2022-08-03T09:25:43.720Z,24.22
2022-08-03T09:28:12.645Z,24.06
2022-08-03T09:30:44.538Z,24.31
2022-08-03T09:33:14.903Z,24.37
2022-08-03T09:35:58.468Z,24.91
2022-08-03T09:38:28.664Z,25.09
2022-08-03T09:40:59.997Z,25.19
2022-08-03T09:43:28.109Z,25.52
2022-08-03T09:46:04.020Z,25.81
2022-08-03T09:48:32.087Z,25.91
2022-08-03T09:51:13.536Z,25.92
2022-08-03T09:53:57.001Z,26.07
2022-08-03T09:56:39.609Z,26.41
2022-08-03T09:59:06.380Z,26.42
2022-08-03T10:01:35.041Z,26.58
2022-08-03T10:04:04.190Z,26.66
2022-08-03T10:06:32.104Z,26.66
2022-08-03T10:09:06.999Z,26.85
2022-08-03T10:11:41.177Z,26.99
2022-08-03T10:14:10.918Z,27.13
2022-08-03T10:16:39.383Z,26.95
2022-08-03T10:19:07.694Z,27.03
2022-08-03T10:21:36.166Z,26.91
2022-08-03T10:24:05.254Z,26.90
2022-08-03T10:26:35.831Z,26.91
2022-08-03T10:29:12.841Z,26.93
2022-08-03T10:31:54.753Z,27.14
2022-08-03T10:34:29.005Z,27.21
2022-08-03T10:36:59.117Z,27.26
2022-08-03T10:39:30.050Z,27.39
2022-08-03T10:41:59.919Z,27.94
2022-08-03T10:44:37.345Z,27.94
2022-08-03T10:47:04.915Z,28.10
2022-08-03T10:49:34.617Z,28.34
2022-08-03T10:52:09.674Z,28.39
2022-08-03T10:55:00.809Z,28.44
2022-08-03T10:57:52.530Z,27.69
2022-08-03T11:00:26.815Z,27.55
2022-08-03T11:03:16.320Z,28.10
2022-08-03T11:05:49.056Z,28.28
2022-08-03T11:08:25.527Z,28.50
2022-08-03T11:10:55.169Z,29.05
2022-08-03T11:13:24.407Z,29.05
2022-08-03T11:15:54.223Z,28.88
2022-08-03T11:18:29.243Z,28.38
2022-08-03T11:20:58.148Z,27.61
2022-08-03T11:24:03.469Z,27.94
2022-08-03T11:26:33.030Z,28.84
2022-08-03T11:29:31.272Z,28.71
2022-08-03T11:31:57.945Z,28.95
2022-08-03T11:34:25.009Z,29.02
2022-08-03T11:37:25.375Z,29.25
2022-08-03T11:39:54.933Z,29.26
2022-08-03T11:42:24.726Z,29.74
2022-08-03T11:44:56.800Z,30.82
2022-08-03T11:47:26.904Z,29.83
2022-08-03T11:50:00.309Z,28.38
2022-08-03T11:52:29.001Z,27.92
2022-08-03T11:54:57.155Z,27.25
2022-08-03T11:59:01.491Z,28.35
2022-08-03T12:00:23.419Z,29.47
2022-08-03T12:03:03.072Z,29.86
2022-08-03T12:05:51.880Z,29.59
2022-08-03T12:08:33.092Z,30.50
2022-08-03T12:11:01.728Z,31.15
2022-08-03T12:14:45.266Z,30.22
2022-08-03T12:16:25.554Z,30.40
2022-08-03T12:19:01.612Z,30.56
2022-08-03T12:21:28.936Z,29.91
2022-08-03T12:24:00.774Z,29.62
2022-08-03T12:26:29.275Z,30.47
2022-08-03T12:28:56.320Z,30.53
2022-08-03T12:31:22.988Z,29.45
2022-08-03T12:34:02.960Z,29.06
2022-08-03T12:36:32.137Z,29.23
2022-08-03T12:39:01.542Z,28.83
2022-08-03T12:41:39.173Z,28.57
2022-08-03T12:44:07.797Z,29.36
2022-08-03T12:46:38.106Z,29.56
2022-08-03T12:49:08.984Z,29.55
2022-08-03T12:51:58.037Z,29.62
2022-08-03T12:54:28.026Z,30.57
2022-08-03T12:57:05.771Z,31.20
2022-08-03T12:59:35.405Z,31.47
2022-08-03T13:02:16.279Z,32.51
2022-08-03T13:04:48.308Z,33.77
2022-08-03T13:07:15.628Z,31.75
2022-08-03T13:09:49.008Z,31.08
2022-08-03T13:12:21.749Z,30.98
2022-08-03T13:14:50.879Z,30.78
2022-08-03T13:17:18.187Z,30.89
2022-08-03T13:19:46.234Z,30.37
2022-08-03T13:22:15.259Z,30.63
2022-08-03T13:24:43.284Z,29.91
2022-08-03T13:28:01.558Z,30.55
2022-08-03T13:29:57.160Z,30.16
2022-08-03T13:32:24.224Z,30.38
2022-08-03T13:34:50.760Z,30.01
2022-08-03T13:37:17.474Z,29.55
2022-08-03T13:40:00.322Z,29.12
2022-08-03T13:42:33.662Z,29.50
2022-08-03T13:45:00.867Z,29.08
2022-08-03T13:47:28.107Z,29.67
2022-08-03T13:50:00.385Z,29.73
2022-08-03T13:52:36.307Z,30.56
2022-08-03T13:55:05.007Z,31.06
2022-08-03T13:58:06.075Z,31.19
2022-08-03T14:00:27.364Z,30.88
2022-08-03T14:03:02.711Z,30.82
2022-08-03T14:05:32.535Z,31.39
2022-08-03T14:08:04.248Z,31.45
2022-08-03T14:10:35.819Z,31.51
2022-08-03T14:13:02.631Z,31.87
2022-08-03T14:15:29.215Z,32.13
2022-08-03T14:17:58.473Z,31.75
2022-08-03T14:20:38.762Z,32.03
2022-08-03T14:23:14.124Z,32.16
2022-08-03T14:25:51.799Z,32.29
2022-08-03T14:28:25.330Z,32.45
2022-08-03T14:30:54.127Z,32.34
2022-08-03T14:33:20.970Z,32.07
2022-08-03T14:35:48.271Z,31.84
2022-08-03T14:38:15.101Z,32.08
2022-08-03T14:40:41.784Z,32.35
2022-08-03T14:43:08.651Z,31.80
2022-08-03T14:45:35.402Z,32.05
2022-08-03T14:50:28.836Z,32.19
2022-08-03T14:50:51.759Z,32.52
2022-08-03T14:53:19.778Z,32.66
2022-08-03T14:55:50.296Z,32.38
2022-08-03T14:58:23.037Z,32.46
2022-08-03T15:00:51.351Z,32.41
2022-08-03T15:03:25.588Z,32.27
2022-08-03T15:05:53.736Z,32.08
2022-08-03T15:08:21.157Z,32.59
2022-08-03T15:10:49.405Z,32.58
2022-08-03T15:13:17.475Z,32.84
2022-08-03T15:15:44.106Z,32.95
2022-08-03T15:18:10.677Z,32.97
2022-08-03T15:20:44.486Z,32.89
2022-08-03T15:23:13.048Z,33.03
2022-08-03T15:26:28.842Z,33.14
2022-08-03T15:28:26.215Z,33.18
2022-08-03T15:30:53.181Z,33.24
2022-08-03T15:33:20.153Z,33.24
2022-08-03T15:35:47.744Z,33.16
2022-08-03T15:38:14.810Z,33.19
2022-08-03T15:40:41.637Z,32.89
2022-08-03T15:43:08.346Z,32.94
2022-08-03T15:45:35.452Z,33.34
2022-08-03T15:48:04.867Z,33.69
2022-08-03T15:50:31.394Z,33.78
2022-08-03T15:52:57.951Z,33.54
2022-08-03T15:55:24.716Z,33.95
2022-08-03T15:59:10.514Z,34.45
2022-08-03T16:00:38.033Z,34.19
2022-08-03T16:03:04.714Z,34.24
2022-08-03T16:05:31.570Z,34.15
2022-08-03T16:08:03.572Z,34.19
2022-08-03T16:10:32.160Z,36.18
2022-08-03T16:12:59.917Z,36.91
2022-08-03T16:15:26.760Z,37.48
2022-08-03T16:17:53.350Z,38.42
2022-08-03T16:20:29.735Z,37.07
2022-08-03T16:23:05.496Z,37.67
2022-08-03T16:25:39.552Z,38.82
2022-08-03T16:28:13.103Z,39.47
2022-08-03T16:30:42.164Z,39.71
2022-08-03T16:33:09.452Z,39.83
2022-08-03T16:35:36.203Z,39.84
2022-08-03T16:38:09.224Z,39.48
2022-08-03T16:40:36.850Z,39.02
2022-08-03T16:43:18.178Z,38.30
2022-08-03T16:45:47.315Z,37.76
2022-08-03T16:48:17.935Z,37.36
2022-08-03T16:50:44.703Z,37.03
2022-08-03T16:53:16.248Z,37.00
2022-08-03T16:55:52.399Z,36.56
2022-08-03T16:58:41.075Z,36.16
2022-08-03T17:01:23.977Z,36.53
2022-08-03T17:04:01.952Z,36.51
2022-08-03T17:06:34.380Z,36.02
2022-08-03T17:09:08.823Z,35.92
2022-08-03T17:11:37.967Z,36.03
2022-08-03T17:14:09.552Z,35.62
2022-08-03T17:16:38.337Z,35.61
2022-08-03T17:19:07.081Z,35.58
2022-08-03T17:21:37.688Z,35.03
2022-08-03T17:24:31.180Z,35.23
2022-08-03T17:27:02.086Z,35.56
2022-08-03T17:29:30.112Z,35.41
2022-08-03T17:31:56.973Z,34.73
2022-08-03T17:34:26.696Z,34.96
2022-08-03T17:37:26.923Z,35.31
2022-08-03T17:39:58.296Z,34.52
2022-08-03T17:42:30.493Z,34.12
2022-08-03T17:45:02.057Z,33.69
2022-08-03T17:47:42.056Z,32.64
2022-08-03T17:50:24.806Z,32.67
2022-08-03T17:53:06.702Z,31.81
2022-08-03T17:55:55.587Z,31.05
2022-08-03T17:58:34.097Z,30.59
2022-08-03T18:02:06.150Z,30.49
2022-08-03T18:04:12.566Z,30.00
2022-08-03T18:06:55.865Z,29.62
2022-08-03T18:10:03.804Z,29.16
2022-08-03T18:12:23.126Z,29.26
2022-08-03T18:14:57.773Z,29.11
2022-08-03T18:17:55.040Z,28.99
2022-08-03T18:20:32.896Z,28.63
2022-08-03T18:23:05.002Z,28.44
2022-08-03T18:25:44.977Z,28.27
2022-08-03T18:28:14.573Z,28.00
2022-08-03T18:30:54.676Z,28.11
2022-08-03T18:34:18.324Z,27.88
2022-08-03T18:36:18.176Z,27.78
2022-08-03T18:38:51.780Z,27.67
2022-08-03T18:41:32.375Z,27.64
2022-08-03T18:44:08.449Z,27.46
2022-08-03T18:46:41.190Z,27.05
2022-08-03T18:49:16.647Z,26.88
2022-08-03T18:51:47.049Z,26.58
2022-08-03T18:54:45.614Z,26.66
2022-08-03T18:57:12.939Z,26.46
2022-08-03T18:59:51.109Z,26.50
2022-08-03T19:02:22.196Z,26.47
2022-08-03T19:04:54.115Z,26.43
2022-08-03T19:07:27.363Z,26.41
2022-08-03T19:10:09.229Z,26.15
2022-08-03T19:12:56.019Z,26.39
2022-08-03T19:15:36.733Z,26.46
2022-08-03T19:18:11.000Z,26.48
2022-08-03T19:20:38.135Z,26.49
2022-08-03T19:23:04.715Z,26.46
2022-08-03T19:25:38.314Z,26.17
2022-08-03T19:28:06.197Z,26.05
2022-08-03T19:30:53.486Z,25.95
2022-08-03T19:33:20.719Z,25.84
2022-08-03T19:35:55.514Z,25.56
2022-08-03T19:38:28.335Z,25.54
2022-08-03T19:41:14.938Z,25.78
2022-08-03T19:43:52.914Z,25.65
2022-08-03T19:46:27.676Z,25.55
2022-08-03T19:49:15.029Z,25.35
2022-08-03T19:51:58.934Z,25.31
2022-08-03T19:54:45.887Z,25.24
2022-08-03T19:57:23.538Z,25.14
2022-08-03T19:59:51.264Z,25.00
2022-08-03T20:02:26.563Z,24.83
2022-08-03T20:04:59.835Z,24.74
2022-08-03T20:07:28.579Z,24.77
2022-08-03T20:09:56.682Z,24.73
2022-08-03T20:12:28.319Z,24.72
2022-08-03T20:14:57.368Z,24.71
2022-08-03T20:17:55.994Z,24.55
2022-08-03T20:20:10.839Z,24.45
2022-08-03T20:22:46.191Z,24.27
2022-08-03T20:25:20.811Z,24.28
2022-08-03T20:28:07.976Z,24.21
2022-08-03T20:30:39.307Z,24.07
2022-08-03T20:33:09.171Z,24.14
2022-08-03T20:35:36.011Z,24.22
2022-08-03T20:38:03.387Z,24.22
2022-08-03T20:40:29.973Z,24.19
2022-08-03T20:42:56.525Z,24.17
2022-08-03T20:45:59.014Z,24.15
2022-08-03T20:48:10.143Z,24.12
2022-08-03T20:50:38.707Z,23.90
2022-08-03T20:53:07.258Z,23.77
2022-08-03T20:58:23.834Z,23.90
2022-08-03T21:00:51.580Z,23.79
2022-08-03T21:03:18.834Z,23.74
2022-08-03T21:05:51.827Z,23.69
2022-08-03T21:08:22.370Z,23.64
2022-08-03T21:10:50.293Z,23.47
2022-08-03T21:13:14.320Z,23.78
2022-08-03T21:13:27.287Z,23.48
2022-08-03T21:16:11.353Z,23.52
2022-08-03T21:18:51.587Z,23.35
2022-08-03T21:21:21.434Z,23.31
2022-08-03T21:23:53.033Z,23.28
2022-08-03T21:26:23.094Z,23.33
2022-08-03T21:28:51.589Z,23.30
2022-08-03T21:31:25.530Z,23.15
2022-08-03T21:34:00.813Z,23.15
2022-08-03T21:36:28.999Z,22.95
2022-08-03T21:38:57.393Z,22.88
2022-08-03T21:41:27.014Z,22.77
2022-08-03T21:43:53.700Z,22.60
2022-08-03T21:46:22.166Z,22.59
2022-08-03T21:48:55.145Z,22.54
2022-08-03T21:51:24.839Z,22.44
2022-08-03T21:54:03.702Z,22.40
2022-08-03T21:56:41.420Z,22.31
2022-08-03T21:59:15.024Z,22.31
2022-08-03T22:01:43.106Z,22.34
2022-08-03T22:04:12.027Z,22.38
2022-08-03T22:06:57.818Z,22.37
2022-08-03T22:09:24.542Z,22.22
2022-08-03T22:11:54.166Z,22.20
2022-08-03T22:14:21.662Z,22.09
2022-08-03T22:16:49.150Z,22.05
2022-08-03T22:19:15.694Z,21.97
2022-08-03T22:21:47.467Z,22.05
2022-08-03T22:24:17.542Z,22.00
2022-08-03T22:27:04.858Z,22.04
2022-08-03T22:29:33.554Z,22.04
2022-08-03T22:32:00.435Z,21.87
2022-08-03T22:34:28.465Z,21.72
2022-08-03T22:36:57.242Z,21.70
2022-08-03T22:39:28.791Z,21.69
2022-08-03T22:41:58.815Z,21.50
2022-08-03T22:44:27.295Z,21.57
2022-08-03T22:46:54.061Z,21.48
2022-08-03T22:49:22.170Z,21.37
2022-08-03T22:51:53.484Z,21.45
2022-08-03T22:54:20.118Z,21.42
2022-08-03T22:56:47.142Z,21.29
2022-08-03T22:59:40.082Z,21.23
2022-08-03T23:02:20.766Z,21.11
2022-08-03T23:04:53.314Z,21.18
2022-08-03T23:07:27.189Z,21.09
2022-08-03T23:09:56.276Z,21.10
2022-08-03T23:12:24.034Z,21.07
2022-08-03T23:14:57.617Z,20.93
2022-08-03T23:17:26.325Z,21.08
2022-08-03T23:19:55.575Z,20.96
2022-08-03T23:22:30.349Z,21.13
2022-08-03T23:24:58.752Z,21.09
2022-08-03T23:27:27.693Z,21.14
2022-08-03T23:29:57.464Z,21.17
2022-08-03T23:32:29.981Z,21.04
2022-08-03T23:35:19.366Z,20.90
2022-08-03T23:38:04.796Z,20.96
2022-08-03T23:40:34.570Z,21.02
2022-08-03T23:43:02.040Z,20.98
2022-08-03T23:45:31.301Z,20.83
